createdAt,value
2023-02-18T00:01:14.207Z,100284.81
2023-02-18T00:03:42.741Z,100283.28
2023-02-18T00:06:25.185Z,100278.97
2023-02-18T00:08:53.377Z,100273.88
2023-02-18T00:11:21.929Z,100280.88
2023-02-18T00:14:01.133Z,100279.28
2023-02-18T00:16:29.309Z,100279.41
2023-02-18T00:18:58.322Z,100257.31
2023-02-18T00:21:26.418Z,100266.81
2023-02-18T00:23:54.553Z,100285.06
2023-02-18T00:26:22.786Z,100275.66
2023-02-18T00:28:52.038Z,100288.66
2023-02-18T00:31:32.430Z,100281.78
2023-02-18T00:34:02.629Z,100283.69
2023-02-18T00:36:30.653Z,100268.19
2023-02-18T00:39:00.902Z,100277.75
2023-02-18T00:41:29.158Z,100279.56
2023-02-18T00:43:58.360Z,100282.25
2023-02-18T00:46:26.540Z,100282.34
2023-02-18T00:48:55.331Z,100275.47
2023-02-18T00:51:23.552Z,100288.50
2023-02-18T00:53:51.968Z,100288.72
2023-02-18T00:56:20.071Z,100290.63
2023-02-18T00:58:48.273Z,100295.25
2023-02-18T01:01:16.281Z,100298.06
2023-02-18T01:03:44.935Z,100297.28
2023-02-18T01:06:13.321Z,100297.34
2023-02-18T01:08:41.137Z,100286.94
2023-02-18T01:11:09.849Z,100288.63
2023-02-18T01:13:37.958Z,100294.63
2023-02-18T01:16:07.988Z,100284.19
2023-02-18T01:18:36.524Z,100291.91
2023-02-18T01:21:08.980Z,100288.34
2023-02-18T01:23:41.130Z,100283.97
2023-02-18T01:26:10.120Z,100285.69
2023-02-18T01:28:39.473Z,100298.72
2023-02-18T01:31:09.034Z,100294.41
2023-02-18T01:33:37.130Z,100295.88
2023-02-18T01:36:06.242Z,100306.88
2023-02-18T01:38:34.629Z,100313.22
2023-02-18T01:41:02.610Z,100297.13
2023-02-18T01:43:30.751Z,100302.56
2023-02-18T01:46:07.013Z,100312.84
2023-02-18T01:48:49.283Z,100309.59
2023-02-18T01:51:23.254Z,100300.81
2023-02-18T01:53:58.223Z,100304.56
2023-02-18T01:56:54.417Z,100299.94
2023-02-18T01:59:28.886Z,100306.38
2023-02-18T02:01:56.823Z,100304.53
2023-02-18T02:04:25.089Z,100299.63
2023-02-18T02:06:53.031Z,100296.22
2023-02-18T02:09:25.399Z,100293.88
2023-02-18T02:12:08.219Z,100296.66
2023-02-18T02:14:54.399Z,100296.72
2023-02-18T02:17:59.650Z,100287.50
2023-02-18T02:20:52.395Z,100292.59
2023-02-18T02:23:53.831Z,100282.34
2023-02-18T02:26:45.979Z,100281.00
2023-02-18T02:29:16.649Z,100274.38
2023-02-18T02:32:02.324Z,100279.53
2023-02-18T02:34:35.412Z,100285.22
2023-02-18T02:37:26.175Z,100280.69
2023-02-18T02:40:13.272Z,100279.88
2023-02-18T02:43:05.842Z,100276.03
2023-02-18T02:45:56.192Z,100280.13
2023-02-18T02:48:47.616Z,100279.50
2023-02-18T02:51:47.102Z,100272.25
2023-02-18T02:54:24.217Z,100270.59
2023-02-18T02:57:10.407Z,100276.06
2023-02-18T02:59:48.816Z,100262.63
2023-02-18T03:02:38.421Z,100262.63
2023-02-18T03:05:45.854Z,100259.16
2023-02-18T03:08:16.340Z,100273.94
2023-02-18T03:10:58.047Z,100269.72
2023-02-18T03:13:34.959Z,100263.25
2023-02-18T03:16:36.306Z,100257.50
2023-02-18T03:19:33.751Z,100267.91
2023-02-18T03:22:09.311Z,100266.88
2023-02-18T03:24:44.725Z,100267.88
2023-02-18T03:27:27.972Z,100258.38
2023-02-18T03:30:03.113Z,100266.75
2023-02-18T03:32:31.197Z,100261.44
2023-02-18T03:35:04.588Z,100260.59
2023-02-18T03:37:33.793Z,100255.41
2023-02-18T03:40:01.517Z,100258.34
2023-02-18T03:42:29.874Z,100262.59
2023-02-18T03:44:57.886Z,100262.25
2023-02-18T03:47:26.302Z,100262.00
2023-02-18T03:49:53.992Z,100260.94
2023-02-18T03:52:21.807Z,100280.28
2023-02-18T03:54:51.931Z,100271.63
2023-02-18T03:57:19.700Z,100269.75
2023-02-18T03:59:47.762Z,100272.34
2023-02-18T04:02:15.843Z,100271.44
2023-02-18T04:04:43.878Z,100262.56
2023-02-18T04:07:11.982Z,100270.06
2023-02-18T04:09:40.168Z,100269.81
2023-02-18T04:12:08.113Z,100262.56
2023-02-18T04:14:36.089Z,100261.28
2023-02-18T04:17:04.180Z,100257.63
2023-02-18T04:19:32.339Z,100248.59
2023-02-18T04:22:00.468Z,100253.88
2023-02-18T04:24:28.450Z,100259.13
2023-02-18T04:26:56.497Z,100261.88
2023-02-18T04:29:24.609Z,100258.50
2023-02-18T04:31:52.814Z,100251.34
2023-02-18T04:34:20.650Z,100245.97
2023-02-18T04:36:48.435Z,100232.97
2023-02-18T04:39:16.312Z,100244.81
2023-02-18T04:41:44.577Z,100252.63
2023-02-18T04:44:12.958Z,100249.75
2023-02-18T04:46:40.998Z,100239.16
2023-02-18T04:49:09.064Z,100233.16
2023-02-18T04:51:38.340Z,100238.56
2023-02-18T04:54:06.113Z,100238.56
2023-02-18T04:56:34.124Z,100232.97
2023-02-18T04:59:01.829Z,100229.25
2023-02-18T05:01:29.665Z,100228.22
2023-02-18T05:03:57.701Z,100229.84
2023-02-18T05:06:25.792Z,100228.81
2023-02-18T05:08:53.851Z,100219.78
2023-02-18T05:11:21.918Z,100218.19
2023-02-18T05:13:50.021Z,100224.09
2023-02-18T05:16:18.103Z,100219.59
2023-02-18T05:18:46.072Z,100219.06
2023-02-18T05:21:14.084Z,100207.59
2023-02-18T05:23:41.852Z,100202.88
2023-02-18T05:26:10.261Z,100202.69
2023-02-18T05:28:38.308Z,100193.81
2023-02-18T05:31:06.389Z,100191.09
2023-02-18T05:33:34.316Z,100184.97
2023-02-18T05:36:02.378Z,100176.25
2023-02-18T05:38:30.104Z,100175.50
2023-02-18T05:40:58.237Z,100177.31
2023-02-18T05:43:26.200Z,100177.22
2023-02-18T05:45:54.218Z,100163.94
2023-02-18T05:48:22.154Z,100172.69
2023-02-18T05:50:54.545Z,100164.78
2023-02-18T05:53:22.552Z,100167.53
2023-02-18T05:55:50.407Z,100165.75
2023-02-18T05:58:18.603Z,100157.16
2023-02-18T06:00:46.442Z,100156.16
2023-02-18T06:03:14.566Z,100155.28
2023-02-18T06:05:42.293Z,100143.81
2023-02-18T06:08:10.057Z,100136.47
2023-02-18T06:10:38.482Z,100142.69
2023-02-18T06:13:06.793Z,100132.06
2023-02-18T06:15:34.894Z,100140.16
2023-02-18T06:18:02.902Z,100132.91
2023-02-18T06:20:31.203Z,100130.63
2023-02-18T06:22:59.286Z,100122.16
2023-02-18T06:25:27.419Z,100123.44
2023-02-18T06:27:55.495Z,100105.44
2023-02-18T06:30:25.078Z,100104.31
2023-02-18T06:32:52.728Z,100101.69
2023-02-18T06:35:20.518Z,100095.03
2023-02-18T06:37:48.521Z,100090.63
2023-02-18T06:40:16.751Z,100093.25
2023-02-18T06:42:44.921Z,100089.31
2023-02-18T06:45:12.962Z,100087.97
2023-02-18T06:47:41.062Z,100085.97
2023-02-18T06:50:09.299Z,100080.22
2023-02-18T06:52:38.816Z,100080.88
2023-02-18T06:55:07.447Z,100085.00
2023-02-18T06:57:35.540Z,100085.63
2023-02-18T07:00:05.747Z,100083.38
2023-02-18T07:02:34.567Z,100079.19
2023-02-18T07:05:02.373Z,100078.00
2023-02-18T07:07:30.373Z,100083.00
2023-02-18T07:09:58.785Z,100082.16
2023-02-18T07:12:26.622Z,100081.97
2023-02-18T07:14:54.578Z,100075.31
2023-02-18T07:17:22.517Z,100080.97
2023-02-18T07:19:50.299Z,100077.22
2023-02-18T07:22:18.454Z,100078.47
2023-02-18T07:24:46.433Z,100073.75
2023-02-18T07:27:14.241Z,100073.75
2023-02-18T07:29:42.227Z,100078.50
2023-02-18T07:32:12.733Z,100067.56
2023-02-18T07:34:40.939Z,100060.13
2023-02-18T07:37:10.283Z,100055.41
2023-02-18T07:39:40.829Z,100047.94
2023-02-18T07:42:09.677Z,100052.31
2023-02-18T07:44:38.413Z,100051.47
2023-02-18T07:47:06.628Z,100054.47
2023-02-18T07:49:34.328Z,100047.38
2023-02-18T07:52:04.454Z,100047.38
2023-02-18T07:54:32.545Z,100040.53
2023-02-18T07:57:00.685Z,100032.47
2023-02-18T07:59:28.784Z,100031.69
2023-02-18T08:01:56.953Z,100033.63
2023-02-18T08:04:25.115Z,100028.09
2023-02-18T08:06:53.107Z,100027.03
2023-02-18T08:09:21.230Z,100033.94
2023-02-18T08:11:49.119Z,100031.13
2023-02-18T08:14:17.426Z,100026.34
2023-02-18T08:16:48.413Z,100029.28
2023-02-18T08:19:17.068Z,100023.44
2023-02-18T08:21:48.224Z,100016.28
2023-02-18T08:24:16.660Z,100015.63
2023-02-18T08:26:59.513Z,100014.13
2023-02-18T08:29:28.771Z,100021.75
2023-02-18T08:31:58.537Z,100015.72
2023-02-18T08:34:26.972Z,100015.94
2023-02-18T08:36:55.230Z,100009.44
2023-02-18T08:39:23.759Z,100011.31
2023-02-18T08:41:51.754Z,100015.94
2023-02-18T08:44:19.468Z,100012.75
2023-02-18T08:46:48.931Z,100013.97
2023-02-18T08:49:17.429Z,100016.50
2023-02-18T08:51:45.236Z,100019.72
2023-02-18T08:54:13.397Z,100019.44
2023-02-18T08:56:42.351Z,100018.19
2023-02-18T08:59:10.598Z,100019.97
2023-02-18T09:01:38.441Z,100022.66
2023-02-18T09:04:06.608Z,100017.09
2023-02-18T09:06:38.189Z,100025.19
2023-02-18T09:09:06.755Z,100026.78
2023-02-18T09:11:34.601Z,100022.66
2023-02-18T09:14:03.632Z,100013.38
2023-02-18T09:16:32.895Z,100014.47
2023-02-18T09:19:01.336Z,100019.84
2023-02-18T09:21:29.189Z,99999.63
2023-02-18T09:23:57.558Z,100015.09
2023-02-18T09:26:26.950Z,100019.81
2023-02-18T09:28:55.650Z,100020.16
2023-02-18T09:31:24.989Z,100009.19
2023-02-18T09:33:55.826Z,100013.03
2023-02-18T09:36:23.905Z,100009.09
2023-02-18T09:38:52.326Z,100012.13
2023-02-18T09:41:35.776Z,100007.19
2023-02-18T09:44:12.169Z,99999.69
2023-02-18T09:46:41.529Z,99997.59
2023-02-18T09:49:15.994Z,99997.03
2023-02-18T09:51:44.541Z,100000.22
2023-02-18T09:54:13.178Z,99989.00
2023-02-18T09:56:41.658Z,99998.31
2023-02-18T09:59:14.320Z,100000.34
2023-02-18T10:01:42.276Z,99992.66
2023-02-18T10:04:26.101Z,99984.94
2023-02-18T10:06:54.746Z,99990.56
2023-02-18T10:09:33.635Z,99989.13
2023-02-18T10:12:20.458Z,99990.91
2023-02-18T10:14:56.111Z,99978.03
2023-02-18T10:17:25.304Z,99978.03
2023-02-18T10:19:54.287Z,99973.72
2023-02-18T10:22:23.318Z,99965.50
2023-02-18T10:25:05.552Z,99979.44
2023-02-18T10:27:35.544Z,99970.53
2023-02-18T10:30:22.622Z,99965.03
2023-02-18T10:32:54.904Z,99972.50
2023-02-18T10:35:34.772Z,99979.88
2023-02-18T10:38:06.119Z,99962.75
2023-02-18T10:40:39.737Z,99961.16
2023-02-18T10:43:10.853Z,99957.84
2023-02-18T10:45:59.279Z,99956.16
2023-02-18T10:48:56.053Z,99958.03
2023-02-18T10:51:30.000Z,99956.25
2023-02-18T10:53:58.270Z,99965.06
2023-02-18T10:56:44.055Z,99967.69
2023-02-18T10:59:13.496Z,99971.44
2023-02-18T11:01:42.236Z,99963.69
2023-02-18T11:04:20.969Z,99965.72
2023-02-18T11:06:49.857Z,99965.22
2023-02-18T11:09:36.434Z,99966.41
2023-02-18T11:12:08.741Z,99967.75
2023-02-18T11:14:48.311Z,99961.88
2023-02-18T11:17:19.357Z,99971.88
2023-02-18T11:19:55.653Z,99966.06
2023-02-18T11:22:26.234Z,99961.94
2023-02-18T11:24:58.945Z,99962.22
2023-02-18T11:27:42.835Z,99965.00
2023-02-18T11:30:21.210Z,99961.69
2023-02-18T11:32:50.204Z,99956.66
2023-02-18T11:35:23.478Z,99956.00
2023-02-18T11:37:51.605Z,99958.09
2023-02-18T11:40:33.241Z,99956.53
2023-02-18T11:43:21.603Z,99960.34
2023-02-18T11:45:49.539Z,99960.50
2023-02-18T11:48:19.415Z,99961.53
2023-02-18T11:50:47.110Z,99951.34
2023-02-18T11:53:35.527Z,99950.41
2023-02-18T11:56:06.399Z,99948.09
2023-02-18T11:58:42.536Z,99943.09
2023-02-18T12:01:21.383Z,99942.47
2023-02-18T12:04:01.155Z,99932.38
2023-02-18T12:06:32.818Z,99942.34
2023-02-18T12:09:13.244Z,99940.88
2023-02-18T12:11:43.113Z,99938.56
2023-02-18T12:14:17.857Z,99947.56
2023-02-18T12:17:04.258Z,99944.34
2023-02-18T12:19:54.408Z,99934.09
2023-02-18T12:22:24.176Z,99932.56
2023-02-18T12:25:04.915Z,99934.47
2023-02-18T12:27:44.034Z,99933.00
2023-02-18T12:30:21.060Z,99937.56
2023-02-18T12:32:54.569Z,99927.34
2023-02-18T12:35:50.300Z,99924.19
2023-02-18T12:38:51.981Z,99922.81
2023-02-18T12:41:30.907Z,99941.16
2023-02-18T12:44:26.474Z,99928.28
2023-02-18T12:47:16.462Z,99940.69
2023-02-18T12:50:31.310Z,99929.72
2023-02-18T12:53:27.909Z,99920.53
2023-02-18T12:56:08.719Z,99940.88
2023-02-18T12:59:00.494Z,99929.81
2023-02-18T13:01:45.504Z,99921.41
2023-02-18T13:04:18.158Z,99923.25
2023-02-18T13:07:27.984Z,99916.59
2023-02-18T13:10:28.423Z,99913.34
2023-02-18T13:13:08.706Z,99909.38
2023-02-18T13:15:54.215Z,99910.38
2023-02-18T13:18:35.204Z,99908.19
2023-02-18T13:21:10.598Z,99900.59
2023-02-18T13:23:54.327Z,99902.31
2023-02-18T13:26:22.433Z,99893.75
2023-02-18T13:29:05.603Z,99899.97
2023-02-18T13:32:08.295Z,99902.06
2023-02-18T13:34:58.596Z,99903.34
2023-02-18T13:37:44.476Z,99893.81
2023-02-18T13:40:28.161Z,99899.19
2023-02-18T13:42:59.137Z,99899.44
2023-02-18T13:45:29.722Z,99904.16
2023-02-18T13:47:58.795Z,99895.47
2023-02-18T13:50:32.011Z,99884.28
2023-02-18T13:53:09.136Z,99874.88
2023-02-18T13:55:41.510Z,99869.03
2023-02-18T13:58:19.194Z,99868.50
2023-02-18T14:01:13.398Z,99865.09
2023-02-18T14:03:44.283Z,99847.72
2023-02-18T14:06:23.332Z,99846.94
2023-02-18T14:08:51.484Z,99838.34
2023-02-18T14:11:22.445Z,99845.41
2023-02-18T14:14:18.016Z,99838.56
2023-02-18T14:17:13.902Z,99823.97
2023-02-18T14:19:42.015Z,99818.09
2023-02-18T14:22:29.566Z,99812.03
2023-02-18T14:25:13.885Z,99824.38
2023-02-18T14:27:42.074Z,99824.63
2023-02-18T14:30:23.354Z,99838.47
2023-02-18T14:32:52.906Z,99843.75
2023-02-18T14:35:40.108Z,99825.53
2023-02-18T14:38:31.305Z,99805.56
2023-02-18T14:41:14.619Z,99802.09
2023-02-18T14:44:11.228Z,99798.50
2023-02-18T14:46:48.163Z,99802.03
2023-02-18T14:49:38.893Z,99807.13
2023-02-18T14:52:11.227Z,99810.56
2023-02-18T14:54:39.724Z,99807.13
2023-02-18T14:57:10.261Z,99799.56
2023-02-18T14:59:42.212Z,99800.56
2023-02-18T15:02:20.146Z,99818.94
2023-02-18T15:04:48.578Z,99849.50
2023-02-18T15:07:18.954Z,99869.47
2023-02-18T15:09:49.099Z,99854.75
2023-02-18T15:12:23.938Z,99839.16
2023-02-18T15:14:53.663Z,99842.69
2023-02-18T15:17:25.444Z,99861.22
2023-02-18T15:19:56.191Z,99878.72
2023-02-18T15:22:26.531Z,99884.25
2023-02-18T15:24:55.847Z,99894.16
2023-02-18T15:27:35.559Z,99904.75
2023-02-18T15:30:16.603Z,99904.97
2023-02-18T15:32:57.733Z,99900.13
2023-02-18T15:35:33.577Z,99893.50
2023-02-18T15:38:02.068Z,99887.13
2023-02-18T15:40:34.683Z,99889.13
2023-02-18T15:43:04.505Z,99902.38
2023-02-18T15:45:37.471Z,99898.59
2023-02-18T15:48:06.659Z,99900.59
2023-02-18T15:50:39.063Z,99904.38
2023-02-18T15:53:15.390Z,99888.44
2023-02-18T15:55:44.492Z,99881.97
2023-02-18T15:58:33.646Z,99884.16
2023-02-18T16:01:03.908Z,99887.09
2023-02-18T16:03:33.046Z,99875.16
2023-02-18T16:06:18.087Z,99862.31
2023-02-18T16:09:02.922Z,99846.81
2023-02-18T16:11:37.177Z,99854.81
2023-02-18T16:14:06.967Z,99853.09
2023-02-18T16:16:36.836Z,99860.97
2023-02-18T16:19:05.592Z,99857.63
2023-02-18T16:21:38.649Z,99855.88
2023-02-18T16:24:27.459Z,99833.22
2023-02-18T16:26:58.985Z,99832.22
2023-02-18T16:29:28.235Z,99831.25
2023-02-18T16:31:56.789Z,99828.44
2023-02-18T16:34:24.986Z,99831.84
2023-02-18T16:37:10.844Z,99839.41
2023-02-18T16:39:38.783Z,99838.50
2023-02-18T16:42:12.764Z,99835.00
2023-02-18T16:44:41.810Z,99834.91
2023-02-18T16:47:12.099Z,99829.66
2023-02-18T16:49:39.967Z,99823.63
2023-02-18T16:52:09.444Z,99828.78
2023-02-18T16:54:37.995Z,99828.88
2023-02-18T16:57:05.776Z,99833.19
2023-02-18T16:59:33.586Z,99843.66
2023-02-18T17:02:02.072Z,99853.19
2023-02-18T17:04:30.327Z,99847.94
2023-02-18T17:06:58.426Z,99855.84
2023-02-18T17:09:27.856Z,99861.09
2023-02-18T17:11:56.617Z,99862.81
2023-02-18T17:14:24.445Z,99870.56
2023-02-18T17:16:53.557Z,99874.88
2023-02-18T17:19:21.868Z,99879.19
2023-02-18T17:21:49.969Z,99890.47
2023-02-18T17:24:18.610Z,99871.38
2023-02-18T17:26:46.671Z,99841.84
2023-02-18T17:29:15.037Z,99853.19
2023-02-18T17:31:47.879Z,99851.66
2023-02-18T17:34:28.059Z,99844.69
2023-02-18T17:36:56.515Z,99861.28
2023-02-18T17:39:25.276Z,99879.63
2023-02-18T17:41:53.523Z,99903.00
2023-02-18T17:44:23.054Z,99907.16
2023-02-18T17:46:51.462Z,99909.63
2023-02-18T17:49:19.414Z,99915.66
2023-02-18T17:51:47.547Z,99939.97
2023-02-18T17:54:20.313Z,99939.91
2023-02-18T17:56:48.738Z,99925.06
2023-02-18T17:59:16.884Z,99922.31
2023-02-18T18:01:45.049Z,99912.63
2023-02-18T18:04:17.265Z,99896.03
2023-02-18T18:06:46.149Z,99904.13
2023-02-18T18:09:14.521Z,99902.47
2023-02-18T18:11:42.241Z,99891.06
2023-02-18T18:14:12.339Z,99865.16
2023-02-18T18:16:40.298Z,99865.53
2023-02-18T18:19:08.127Z,99866.75
2023-02-18T18:21:36.648Z,99875.75
2023-02-18T18:24:04.644Z,99864.66
2023-02-18T18:26:32.642Z,99874.09
2023-02-18T18:29:00.681Z,99919.09
2023-02-18T18:31:28.938Z,99894.75
2023-02-18T18:33:57.647Z,99886.84
2023-02-18T18:36:25.524Z,99890.91
2023-02-18T18:38:53.595Z,99894.06
2023-02-18T18:41:22.371Z,99911.44
2023-02-18T18:43:50.198Z,99917.44
2023-02-18T18:46:18.851Z,99907.09
2023-02-18T18:48:47.593Z,99913.06
2023-02-18T18:51:17.196Z,99925.25
2023-02-18T18:53:45.305Z,99900.28
2023-02-18T18:56:13.373Z,99915.25
2023-02-18T18:58:41.357Z,99913.53
2023-02-18T19:01:15.293Z,99896.28
2023-02-18T19:03:44.152Z,99912.75
2023-02-18T19:06:12.578Z,99918.69
2023-02-18T19:08:40.741Z,99917.91
2023-02-18T19:11:08.662Z,99919.59
2023-02-18T19:13:37.187Z,99920.50
2023-02-18T19:16:09.472Z,99917.84
2023-02-18T19:18:37.441Z,99942.06
2023-02-18T19:21:05.741Z,99948.88
2023-02-18T19:23:34.356Z,99932.22
2023-02-18T19:26:02.131Z,99937.25
2023-02-18T19:28:30.067Z,99965.75
2023-02-18T19:30:57.871Z,99956.97
2023-02-18T19:33:25.765Z,99958.44
2023-02-18T19:35:53.471Z,99947.66
2023-02-18T19:38:21.252Z,99952.75
2023-02-18T19:40:49.341Z,99956.88
2023-02-18T19:43:17.482Z,99960.88
2023-02-18T19:45:46.684Z,99966.81
2023-02-18T19:48:15.318Z,99964.09
2023-02-18T19:50:43.429Z,99946.06
2023-02-18T19:53:11.395Z,99951.38
2023-02-18T19:55:40.188Z,99963.78
2023-02-18T19:58:08.091Z,99958.56
2023-02-18T20:00:35.984Z,99948.88
2023-02-18T20:03:03.668Z,99953.13
2023-02-18T20:05:31.456Z,99947.84
2023-02-18T20:07:59.457Z,99951.31
2023-02-18T20:10:27.453Z,99968.56
2023-02-18T20:12:55.467Z,99960.69
2023-02-18T20:15:23.641Z,99958.88
2023-02-18T20:17:51.940Z,99945.78
2023-02-18T20:20:20.204Z,99945.03
2023-02-18T20:22:48.450Z,99951.28
2023-02-18T20:25:16.324Z,99962.44
2023-02-18T20:27:59.529Z,99965.66
2023-02-18T20:30:28.224Z,99959.41
2023-02-18T20:32:56.143Z,99961.03
2023-02-18T20:35:24.205Z,99954.78
2023-02-18T20:37:52.227Z,99950.25
2023-02-18T20:40:20.283Z,99958.47
2023-02-18T20:42:48.085Z,99961.59
2023-02-18T20:45:15.987Z,99955.09
2023-02-18T20:47:43.882Z,99950.38
2023-02-18T20:50:11.610Z,99956.09
2023-02-18T20:52:40.190Z,99951.41
2023-02-18T20:55:08.606Z,99949.41
2023-02-18T20:57:37.128Z,99949.03
2023-02-18T21:00:05.815Z,99947.81
2023-02-18T21:02:34.039Z,99953.41
2023-02-18T21:05:01.829Z,99947.88
2023-02-18T21:07:29.942Z,99955.25
2023-02-18T21:09:57.744Z,99962.91
2023-02-18T21:12:25.933Z,99955.78
2023-02-18T21:14:53.993Z,99960.03
2023-02-18T21:17:22.630Z,99958.13
2023-02-18T21:19:51.045Z,99960.44
2023-02-18T21:22:18.930Z,99964.56
2023-02-18T21:24:47.116Z,99960.09
2023-02-18T21:27:15.149Z,99953.84
2023-02-18T21:29:43.205Z,99967.44
2023-02-18T21:32:11.381Z,99973.63
2023-02-18T21:34:39.300Z,99969.41
2023-02-18T21:37:07.095Z,99981.75
2023-02-18T21:39:34.874Z,99982.00
2023-02-18T21:42:04.787Z,99978.75
2023-02-18T21:44:41.951Z,99971.47
2023-02-18T21:47:11.479Z,99968.94
2023-02-18T21:49:39.466Z,99974.41
2023-02-18T21:52:09.795Z,99973.75
2023-02-18T21:54:40.522Z,99961.59
2023-02-18T21:57:14.222Z,99962.66
2023-02-18T21:59:42.543Z,99979.28
2023-02-18T22:02:16.541Z,99973.38
2023-02-18T22:04:44.498Z,99971.75
2023-02-18T22:07:12.544Z,99969.34
2023-02-18T22:09:41.042Z,99967.81
2023-02-18T22:12:09.258Z,99984.47
2023-02-18T22:14:37.052Z,99974.09
2023-02-18T22:17:06.099Z,99975.03
2023-02-18T22:19:34.585Z,99978.53
2023-02-18T22:22:05.334Z,99982.25
2023-02-18T22:24:33.223Z,99977.16
2023-02-18T22:27:01.905Z,99979.53
2023-02-18T22:29:30.697Z,99968.16
2023-02-18T22:31:58.947Z,99974.16
2023-02-18T22:34:26.984Z,99975.88
2023-02-18T22:36:54.729Z,99973.25
2023-02-18T22:39:22.722Z,99974.09
2023-02-18T22:41:50.774Z,99975.88
2023-02-18T22:44:18.504Z,99977.56
2023-02-18T22:46:46.925Z,99979.25
2023-02-18T22:49:15.055Z,99993.19
2023-02-18T22:51:44.189Z,99990.63
2023-02-18T22:54:16.176Z,99977.69
2023-02-18T22:56:44.646Z,99984.88
2023-02-18T22:59:13.154Z,99983.97
2023-02-18T23:01:42.799Z,99980.50
2023-02-18T23:04:12.277Z,99977.94
2023-02-18T23:06:41.550Z,99981.47
2023-02-18T23:09:11.941Z,99971.75
2023-02-18T23:11:39.689Z,99983.91
2023-02-18T23:14:19.435Z,99984.16
2023-02-18T23:17:13.704Z,100000.41
2023-02-18T23:19:46.493Z,100005.38
2023-02-18T23:22:19.907Z,100000.97
2023-02-18T23:24:50.079Z,99993.13
2023-02-18T23:27:18.132Z,100001.53
2023-02-18T23:29:46.187Z,99989.97
2023-02-18T23:32:14.224Z,99995.03
2023-02-18T23:34:42.530Z,99987.06
2023-02-18T23:37:10.853Z,99987.13
2023-02-18T23:39:40.210Z,99983.84
2023-02-18T23:42:09.041Z,99985.25
2023-02-18T23:44:37.061Z,99991.53
2023-02-18T23:47:05.162Z,100000.47
2023-02-18T23:49:33.515Z,100011.00
2023-02-18T23:52:01.597Z,100022.16
2023-02-18T23:54:29.889Z,100032.41
2023-02-18T23:56:57.981Z,100029.41
2023-02-18T23:59:26.230Z,100029.06
